Time;durP1;ratioP1;P1;durP2;ratioP2;P2;SDS_P1;SDS_P2;PMS_P1;PMS_P2;Temp;Humidity;BMP_temperature;BMP_pressure;BME280_temperature;BME280_humidity;BME280_pressure;Samples;Min_cycle;Max_cycle;Signal;HPM_P1;HPM_P2
2022/12/06 00:02:42;;;;;;;58.67;24.60;;;;;;;5.78;72.76;99378.81;5161899;28;20161;-70
2022/12/06 00:05:32;;;;;;;48.92;24.75;;;;;;;5.76;73.14;99377.25;5149305;28;20065;-71
2022/12/06 00:08:22;;;;;;;49.15;23.70;;;;;;;5.78;73.17;99370.94;5149582;28;20050;-71
2022/12/06 00:11:15;;;;;;;44.08;22.08;;;;;;;5.84;72.85;99380.22;5145778;28;20054;-71
2022/12/06 00:14:07;;;;;;;50.33;22.55;;;;;;;5.83;72.11;99383.81;5161346;28;20065;-71
2022/12/06 00:16:57;;;;;;;43.22;21.80;;;;;;;5.79;72.95;99377.03;5137504;28;20658;-71
2022/12/06 00:19:48;;;;;;;56.20;24.08;;;;;;;5.64;73.12;99363.97;5153334;28;20064;-72
2022/12/06 00:22:43;;;;;;;46.45;22.10;;;;;;;5.67;72.69;99362.09;5132355;28;20055;-72
2022/12/06 00:25:34;;;;;;;49.92;23.63;;;;;;;5.73;73.19;99374.81;5154697;28;20053;-72
2022/12/06 00:28:24;;;;;;;53.13;23.67;;;;;;;5.70;73.37;99368.00;5159202;28;20139;-73
2022/12/06 00:31:17;;;;;;;46.67;21.63;;;;;;;5.78;72.57;99367.47;5143432;28;20077;-73
2022/12/06 00:34:07;;;;;;;42.45;21.40;;;;;;;5.74;71.34;99368.63;5152748;28;20218;-73
2022/12/06 00:36:57;;;;;;;43.03;20.58;;;;;;;5.65;72.66;99359.56;5161378;28;20061;-73
2022/12/06 00:39:47;;;;;;;41.38;19.40;;;;;;;5.71;72.45;99377.56;5160343;28;20056;-73
2022/12/06 00:42:38;;;;;;;42.08;20.35;;;;;;;5.57;71.90;99360.09;5166983;28;20050;-73
2022/12/06 00:45:28;;;;;;;43.83;21.25;;;;;;;5.55;72.00;99358.50;5142294;28;20461;-73
2022/12/06 00:48:18;;;;;;;42.10;19.80;;;;;;;5.44;72.32;99356.59;5152771;28;20065;-72
2022/12/06 00:51:09;;;;;;;40.97;18.85;;;;;;;5.44;72.06;99351.31;5150797;28;20108;-73
2022/12/06 00:53:59;;;;;;;38.17;19.13;;;;;;;5.54;72.05;99370.81;5167404;28;20076;-73
2022/12/06 00:56:50;;;;;;;49.20;21.52;;;;;;;5.51;72.24;99368.38;5158853;28;20058;-73
2022/12/06 00:59:39;;;;;;;48.88;23.02;;;;;;;5.51;72.67;99368.38;5135081;28;20054;-73
2022/12/06 01:02:29;;;;;;;49.97;22.83;;;;;;;5.43;72.07;99349.66;5154456;28;20050;-73
2022/12/06 01:05:19;;;;;;;50.28;21.88;;;;;;;5.52;71.90;99358.69;5150872;28;20054;-73
2022/12/06 01:08:10;;;;;;;51.13;22.40;;;;;;;5.52;71.84;99367.44;5161461;28;20054;-73
2022/12/06 01:11:01;;;;;;;46.05;21.02;;;;;;;5.39;71.83;99359.50;5141469;28;20051;-72
2022/12/06 01:13:52;;;;;;;48.92;21.73;;;;;;;5.33;71.80;99349.44;5180981;28;20675;-72
2022/12/06 01:16:42;;;;;;;43.95;21.02;;;;;;;5.38;72.76;99370.13;5161952;28;20184;-72
2022/12/06 01:19:32;;;;;;;36.65;19.02;;;;;;;5.34;72.58;99363.41;5155663;28;20832;-73
2022/12/06 01:22:22;;;;;;;40.08;19.83;;;;;;;5.39;72.30;99356.03;5141414;28;20067;-72
2022/12/06 01:25:12;;;;;;;37.72;18.75;;;;;;;5.32;72.08;99363.50;5139454;28;20547;-72
2022/12/06 01:28:02;;;;;;;39.15;17.05;;;;;;;5.41;72.17;99359.41;5144862;28;20764;-71
2022/12/06 01:30:52;;;;;;;36.40;18.00;;;;;;;5.19;71.92;99303.00;5160937;28;20089;-72
2022/12/06 01:33:43;;;;;;;38.42;17.73;;;;;;;5.49;72.17;99357.09;5160874;28;20140;-72
2022/12/06 01:36:33;;;;;;;35.40;16.40;;;;;;;5.43;72.46;99347.03;5141318;28;20054;-72
2022/12/06 01:39:23;;;;;;;36.70;18.08;;;;;;;5.43;72.67;99360.19;5141448;28;20110;-71
2022/12/06 01:42:14;;;;;;;36.30;17.77;;;;;;;5.47;72.57;99350.28;5174633;28;20109;-72
2022/12/06 01:45:05;;;;;;;35.90;17.50;;;;;;;5.46;72.44;99341.53;5151400;28;20056;-72
2022/12/06 01:47:55;;;;;;;42.55;19.02;;;;;;;5.39;71.71;99340.25;5141532;28;20519;-72
2022/12/06 01:50:45;;;;;;;34.15;18.88;;;;;;;5.43;72.79;99352.28;5145699;28;20144;-73
2022/12/06 01:53:37;;;;;;;35.65;16.65;;;;;;;5.46;72.73;99346.78;5147129;28;20136;-71
2022/12/06 01:56:27;;;;;;;36.85;18.00;;;;;;;5.51;72.22;99342.09;5161694;28;20051;-72
2022/12/06 01:59:19;;;;;;;36.63;17.45;;;;;;;5.50;72.26;99344.81;5141091;28;20061;-72
2022/12/06 02:02:10;;;;;;;33.78;17.48;;;;;;;5.46;72.53;99354.69;5131334;28;20078;-72
2022/12/06 02:05:02;;;;;;;34.55;16.67;;;;;;;5.50;71.96;99350.94;5146865;28;20049;-72
2022/12/06 02:07:53;;;;;;;32.90;16.92;;;;;;;5.23;72.25;99308.91;5144147;28;20117;-72
2022/12/06 02:10:44;;;;;;;39.17;17.90;;;;;;;5.48;72.54;99350.16;5147988;28;20059;-72
2022/12/06 02:13:35;;;;;;;36.08;16.08;;;;;;;5.45;72.81;99339.03;5144975;28;20688;-72
2022/12/06 02:16:34;;;;;;;30.58;15.95;;;;;;;5.54;72.62;99341.88;5116438;28;20532;-70
2022/12/06 02:19:52;;;;;;;31.98;15.65;;;;;;;5.50;72.06;99339.56;5129385;28;20070;-71
2022/12/06 02:23:04;;;;;;;36.40;17.45;;;;;;;5.38;72.79;99331.53;5152176;28;20054;-72
2022/12/06 02:25:59;;;;;;;34.08;16.25;;;;;;;5.41;72.69;99338.38;5163136;28;20052;-70
2022/12/06 02:28:50;;;;;;;35.85;17.83;;;;;;;5.50;72.83;99329.88;5139399;28;20113;-72
2022/12/06 02:31:49;;;;;;;32.42;16.60;;;;;;;5.55;72.74;99327.78;5145073;28;20052;-72
2022/12/06 02:34:51;;;;;;;42.05;19.10;;;;;;;5.58;72.49;99331.97;5129837;28;20191;-72
2022/12/06 02:38:01;;;;;;;42.35;17.90;;;;;;;5.61;72.97;99339.66;5167065;28;20416;-72
2022/12/06 02:41:03;;;;;;;53.15;21.73;;;;;;;5.45;72.93;99321.44;5162876;28;20058;-73
2022/12/06 02:43:58;;;;;;;53.53;23.35;;;;;;;5.58;73.46;99332.81;5144326;28;20193;-72
2022/12/06 02:46:50;;;;;;;48.97;23.33;;;;;;;5.55;73.14;99327.78;5160163;28;20108;-72
2022/12/06 02:49:45;;;;;;;51.92;23.20;;;;;;;5.57;73.26;99331.16;5137740;28;20503;-72
2022/12/06 02:52:40;;;;;;;50.25;22.38;;;;;;;5.50;73.50;99316.72;5171449;28;20091;-72
2022/12/06 02:55:32;;;;;;;47.17;21.55;;;;;;;5.57;73.56;99325.88;5129609;28;20614;-72
2022/12/06 02:58:22;;;;;;;51.17;22.30;;;;;;;5.48;73.17;99305.47;5151633;28;20203;-72
2022/12/06 03:01:12;;;;;;;45.10;20.17;;;;;;;5.65;73.55;99322.72;5161851;28;20061;-72
2022/12/06 03:04:33;;;;;;;43.08;20.85;;;;;;;5.63;73.23;99324.63;5153106;28;20134;-72
2022/12/06 03:07:34;;;;;;;42.72;20.70;;;;;;;5.53;73.08;99306.00;5134526;28;20428;-72
2022/12/06 03:10:39;;;;;;;41.42;21.33;;;;;;;5.76;72.53;99319.34;5163234;28;20050;-71
2022/12/06 03:13:41;;;;;;;46.65;21.30;;;;;;;5.63;73.19;99301.81;5165931;28;20196;-72
2022/12/06 03:16:52;;;;;;;47.30;21.23;;;;;;;5.68;72.82;99317.25;5142872;28;20042;-71
2022/12/06 03:19:48;;;;;;;50.28;22.40;;;;;;;5.68;73.31;99306.72;5119178;28;20197;-72
2022/12/06 03:22:45;;;;;;;44.80;21.23;;;;;;;5.70;73.41;99311.91;5145759;28;20185;-71
2022/12/06 03:25:36;;;;;;;44.33;21.35;;;;;;;5.68;73.00;99300.63;5136527;28;20105;-71
2022/12/06 03:28:28;;;;;;;41.00;20.65;;;;;;;5.74;72.93;99303.69;5164193;28;20057;-71
2022/12/06 03:31:21;;;;;;;44.97;20.15;;;;;;;5.65;74.05;99299.88;5147713;28;20113;-71
2022/12/06 03:34:18;;;;;;;41.13;19.70;;;;;;;5.83;72.25;99300.44;5156067;28;20104;-72
2022/12/06 03:37:13;;;;;;;45.03;20.55;;;;;;;5.67;72.62;99283.19;5158706;28;20441;-72
2022/12/06 03:40:18;;;;;;;45.70;20.52;;;;;;;5.89;73.10;99299.13;5145545;28;20062;-71
2022/12/06 03:43:09;;;;;;;52.05;24.05;;;;;;;5.67;73.77;99299.78;5159090;28;20145;-72
2022/12/06 03:46:17;;;;;;;60.67;25.90;;;;;;;5.80;72.89;99299.81;5143060;28;20077;-71
2022/12/06 03:49:16;;;;;;;53.45;24.73;;;;;;;5.79;73.48;99293.66;5127959;28;20149;-72
2022/12/06 03:52:07;;;;;;;55.30;27.35;;;;;;;5.89;72.71;99285.97;5128010;28;20069;-71
2022/12/06 03:54:57;;;;;;;47.30;23.25;;;;;;;5.78;72.29;99278.00;5148992;28;20061;-71
2022/12/06 03:57:47;;;;;;;53.13;23.45;;;;;;;5.81;72.57;99280.41;5152438;28;20066;-71
2022/12/06 04:00:38;;;;;;;54.17;23.80;;;;;;;5.85;73.12;99284.53;5132831;28;20057;-71
2022/12/06 04:03:28;;;;;;;50.28;23.02;;;;;;;5.87;72.59;99274.75;5145287;28;20059;-72
2022/12/06 04:06:18;;;;;;;46.25;23.27;;;;;;;5.85;72.08;99266.94;5153386;28;20686;-71
2022/12/06 04:15:36;;;;;;;40.85;19.20;;;;;;;5.79;73.20;99277.88;5147179;28;20057;-72
2022/12/06 04:18:27;;;;;;;40.70;20.25;;;;;;;5.97;72.48;99278.44;5149392;28;20053;-71
2022/12/06 04:24:33;;;;;;;43.50;19.88;;;;;;;5.84;73.13;99261.78;5144831;28;20508;-72
2022/12/06 04:39:59;;;;;;;39.80;18.13;;;;;;;5.90;72.45;99248.22;5159403;28;20108;-71
2022/12/06 04:45:58;;;;;;;45.80;23.95;;;;;;;6.06;73.25;99254.09;5131477;28;20408;-71
2022/12/06 04:48:48;;;;;;;50.35;24.83;;;;;;;6.02;72.66;99247.34;5148536;28;20077;-71
2022/12/06 04:51:38;;;;;;;50.38;24.20;;;;;;;6.03;72.76;99253.47;5142110;28;20133;-71
2022/12/06 04:54:29;;;;;;;48.30;24.00;;;;;;;6.08;72.08;99252.19;5162976;28;20199;-72
2022/12/06 04:57:19;;;;;;;51.65;24.08;;;;;;;6.06;72.73;99243.56;5163594;28;20053;-71
2022/12/06 05:00:10;;;;;;;44.97;23.83;;;;;;;6.05;72.71;99248.94;5173162;28;20050;-72
2022/12/06 05:03:00;;;;;;;49.95;23.48;;;;;;;6.06;72.39;99226.91;5169078;28;20577;-71
2022/12/06 05:05:51;;;;;;;43.83;21.70;;;;;;;6.05;72.24;99231.34;5141792;28;20119;-71
2022/12/06 05:08:41;;;;;;;44.97;19.75;;;;;;;6.01;72.59;99229.88;5127166;28;20057;-71
2022/12/06 05:11:31;;;;;;;40.38;19.20;;;;;;;6.05;72.91;99241.03;5160302;28;20691;-71
2022/12/06 05:14:21;;;;;;;35.45;18.17;;;;;;;6.01;72.21;99232.53;5175473;28;20505;-70
2022/12/06 05:17:11;;;;;;;40.08;18.35;;;;;;;6.02;72.15;99241.25;5126757;28;20137;-72
2022/12/06 05:20:01;;;;;;;34.53;16.92;;;;;;;6.08;72.15;99253.97;5158723;28;20054;-71
2022/12/06 05:22:51;;;;;;;32.20;16.17;;;;;;;6.02;72.01;99239.44;5161438;28;20088;-71
2022/12/06 05:25:42;;;;;;;37.75;17.40;;;;;;;6.11;72.25;99251.97;5133177;28;20054;-71
2022/12/06 05:28:33;;;;;;;36.45;16.65;;;;;;;6.14;72.20;99244.81;5168961;28;20501;-71
2022/12/06 05:31:24;;;;;;;34.00;17.15;;;;;;;6.10;71.59;99238.94;5151229;28;20144;-71
2022/12/06 05:34:15;;;;;;;29.92;16.27;;;;;;;5.92;72.08;99219.97;5152077;28;20070;-71
2022/12/06 05:37:05;;;;;;;32.83;15.85;;;;;;;5.97;73.34;99233.69;5154186;28;20078;-69
2022/12/06 05:39:55;;;;;;;32.75;16.15;;;;;;;6.08;72.13;99232.91;5153939;28;20462;-70
2022/12/06 05:42:45;;;;;;;30.73;15.88;;;;;;;6.03;72.13;99225.38;5154995;28;20429;-72
2022/12/06 05:45:36;;;;;;;30.35;16.63;;;;;;;6.18;71.63;99243.63;5173633;28;20129;-69
2022/12/06 05:48:26;;;;;;;33.40;17.15;;;;;;;6.21;71.62;99240.78;5164966;28;20068;-71
2022/12/06 05:51:16;;;;;;;34.58;17.23;;;;;;;6.26;71.76;99249.22;5170660;28;20041;-70
2022/12/06 05:54:07;;;;;;;33.28;16.73;;;;;;;6.09;71.71;99238.09;5168490;28;20053;-73
2022/12/06 05:56:57;;;;;;;36.08;17.13;;;;;;;5.98;72.00;99219.56;5154635;28;20049;-73
2022/12/06 05:59:47;;;;;;;35.28;16.67;;;;;;;6.10;71.97;99252.09;5161625;28;20054;-70
2022/12/06 06:02:37;;;;;;;35.95;16.58;;;;;;;5.95;72.86;99225.06;5156095;28;20535;-72
2022/12/06 06:05:29;;;;;;;33.63;16.83;;;;;;;6.17;72.22;99257.75;5149442;28;20176;-71
2022/12/06 06:08:18;;;;;;;33.90;17.95;;;;;;;6.05;71.94;99233.97;5165886;28;20056;-71
2022/12/06 06:11:09;;;;;;;32.22;16.52;;;;;;;6.19;71.78;99251.44;5156682;28;20620;-71
2022/12/06 06:13:58;;;;;;;38.75;18.42;;;;;;;6.16;71.85;99241.13;5160163;28;20050;-71
2022/12/06 06:16:50;;;;;;;41.35;17.48;;;;;;;6.25;71.63;99255.41;5150420;28;20074;-71
2022/12/06 06:19:41;;;;;;;35.80;16.55;;;;;;;6.26;71.25;99249.22;5130230;28;20101;-70
2022/12/06 06:22:39;;;;;;;32.60;15.82;;;;;;;6.20;70.92;99234.69;5153989;28;20101;-71
2022/12/06 06:25:29;;;;;;;37.03;17.65;;;;;;;6.19;70.94;99238.28;5149182;28;20457;-71
2022/12/06 06:28:19;;;;;;;35.25;16.15;;;;;;;6.12;71.10;99229.13;5155360;28;20069;-71
2022/12/06 06:31:09;;;;;;;34.47;18.23;;;;;;;6.22;70.82;99243.28;5138082;28;20057;-70
2022/12/06 06:33:59;;;;;;;35.88;19.08;;;;;;;6.12;71.81;99231.75;5153013;28;20053;-71
2022/12/06 06:36:49;;;;;;;34.80;17.17;;;;;;;6.17;71.70;99232.28;5151284;28;20470;-71
2022/12/06 06:39:39;;;;;;;33.25;16.95;;;;;;;6.15;71.79;99249.13;5153351;28;20050;-70
2022/12/06 06:42:30;;;;;;;31.63;16.98;;;;;;;6.10;71.28;99236.28;5147187;28;20050;-71
2022/12/06 06:45:20;;;;;;;35.72;17.38;;;;;;;6.04;71.32;99234.94;5135438;28;20169;-70
2022/12/06 06:48:17;;;;;;;33.80;18.75;;;;;;;6.11;71.89;99244.06;5138268;28;20043;-70
2022/12/06 06:51:10;;;;;;;36.67;17.38;;;;;;;6.18;72.11;99260.28;5140721;28;20069;-72
2022/12/06 06:54:00;;;;;;;33.55;16.98;;;;;;;6.21;72.09;99259.22;5138983;28;20468;-69
2022/12/06 06:56:50;;;;;;;34.40;16.33;;;;;;;6.21;72.05;99252.16;5119942;28;20144;-70
2022/12/06 06:59:41;;;;;;;33.78;17.30;;;;;;;6.07;72.15;99237.34;5126017;28;20058;-70
2022/12/06 07:02:32;;;;;;;26.55;14.65;;;;;;;6.19;71.56;99255.84;5134459;28;20069;-72
2022/12/06 07:05:22;;;;;;;30.00;15.32;;;;;;;6.20;71.60;99257.53;5142596;28;20583;-71
2022/12/06 07:08:12;;;;;;;37.85;17.38;;;;;;;6.27;71.31;99259.63;5144810;28;20155;-72
2022/12/06 07:11:03;;;;;;;33.33;16.73;;;;;;;6.28;71.80;99252.56;5137391;28;20234;-73
2022/12/06 07:13:53;;;;;;;33.17;16.08;;;;;;;6.29;71.85;99247.19;5133895;28;20065;-72
2022/12/06 07:16:43;;;;;;;35.10;17.30;;;;;;;6.23;71.38;99237.09;5144881;28;20104;-71
2022/12/06 07:19:33;;;;;;;32.30;16.23;;;;;;;6.34;71.81;99249.50;5128124;28;20053;-71
2022/12/06 07:22:23;;;;;;;30.25;15.82;;;;;;;6.31;72.07;99252.34;5134241;28;20061;-71
2022/12/06 07:25:13;;;;;;;32.25;15.63;;;;;;;6.34;71.78;99255.59;5140155;28;20062;-71
2022/12/06 07:28:03;;;;;;;31.00;14.82;;;;;;;6.28;72.08;99253.41;5139904;28;20058;-71
2022/12/06 07:30:53;;;;;;;31.80;15.55;;;;;;;6.29;71.52;99260.38;5110658;28;20065;-71
2022/12/06 07:33:44;;;;;;;27.70;15.15;;;;;;;6.30;72.11;99261.19;5126328;28;20093;-71
2022/12/06 07:36:34;;;;;;;34.10;15.95;;;;;;;6.26;71.50;99239.50;5144250;28;20626;-73
2022/12/06 07:39:25;;;;;;;29.90;16.08;;;;;;;6.20;72.06;99249.66;5132725;28;20065;-71
2022/12/06 07:45:25;;;;;;;32.80;15.95;;;;;;;6.29;72.29;99249.84;5134021;28;20164;-73
2022/12/06 07:48:15;;;;;;;35.05;16.80;;;;;;;6.33;72.72;99263.63;5130537;28;20050;-72
2022/12/06 07:51:05;;;;;;;31.27;17.02;;;;;;;6.31;72.48;99258.44;5149065;28;20056;-71
2022/12/06 07:53:56;;;;;;;37.92;18.20;;;;;;;6.39;72.76;99254.41;5142581;28;20046;-71
2022/12/06 07:56:46;;;;;;;33.05;17.35;;;;;;;6.36;72.38;99258.13;5139864;28;20500;-71
2022/12/06 07:59:36;;;;;;;31.10;17.60;;;;;;;6.34;72.35;99252.94;5138495;28;20081;-70
2022/12/06 08:02:28;;;;;;;31.63;16.38;;;;;;;6.25;72.43;99248.34;5138428;28;20054;-71
2022/12/06 08:05:17;;;;;;;27.25;14.02;;;;;;;6.20;72.37;99265.44;5138313;28;20054;-72
2022/12/06 08:08:07;;;;;;;27.55;13.90;;;;;;;6.12;71.82;99226.47;5134408;28;20101;-71
2022/12/06 08:11:03;;;;;;;27.83;13.80;;;;;;;6.31;72.65;99252.34;5141223;28;20172;-70
2022/12/06 08:13:53;;;;;;;26.60;13.93;;;;;;;6.22;71.70;99255.63;5141872;28;20058;-70
2022/12/06 08:16:44;;;;;;;30.42;15.25;;;;;;;6.17;72.32;99255.97;5129007;28;20112;-73
2022/12/06 08:19:34;;;;;;;26.15;14.13;;;;;;;6.25;70.76;99252.78;5133356;28;20823;-73
2022/12/06 08:22:24;;;;;;;31.60;14.63;;;;;;;6.35;71.76;99252.00;5146329;28;20177;-70
2022/12/06 08:25:14;;;;;;;36.15;16.73;;;;;;;6.33;72.22;99239.91;5147005;28;20144;-71
2022/12/06 08:28:04;;;;;;;37.10;17.10;;;;;;;6.39;71.39;99242.09;5138643;28;20069;-70
2022/12/06 08:30:55;;;;;;;29.58;16.17;;;;;;;6.06;72.01;99240.94;5139117;28;20070;-70
2022/12/06 08:33:52;;;;;;;27.25;14.95;;;;;;;5.91;71.24;99254.31;5126045;28;20134;-70
2022/12/06 08:36:42;;;;;;;32.20;14.55;;;;;;;6.37;69.68;99256.34;5125512;28;20058;-70
2022/12/06 08:39:32;;;;;;;25.42;14.55;;;;;;;6.40;71.37;99256.94;5122798;28;20077;-70
2022/12/06 08:42:22;;;;;;;30.40;15.20;;;;;;;6.13;71.49;99259.78;5138235;28;20065;-70
2022/12/06 08:45:14;;;;;;;30.63;14.88;;;;;;;6.20;71.54;99247.84;5112593;28;20093;-70
2022/12/06 08:48:05;;;;;;;26.52;13.80;;;;;;;6.38;70.76;99264.09;5127938;28;20061;-70
2022/12/06 08:50:55;;;;;;;29.08;14.57;;;;;;;6.30;69.21;99263.84;5150035;28;20125;-70
2022/12/06 08:53:46;;;;;;;24.80;13.73;;;;;;;6.08;71.27;99262.72;5148649;28;20065;-71
2022/12/06 08:56:36;;;;;;;23.92;12.65;;;;;;;5.99;72.02;99252.00;5143082;28;20058;-70
2022/12/06 08:59:27;;;;;;;20.38;11.85;;;;;;;5.79;72.14;99271.78;5140895;28;20583;-71
2022/12/06 09:02:18;;;;;;;27.50;12.30;;;;;;;5.95;72.33;99256.63;5110950;28;20057;-70
2022/12/06 09:05:08;;;;;;;25.52;13.85;;;;;;;5.77;73.06;99268.44;5123600;28;20512;-70
2022/12/06 09:07:58;;;;;;;28.50;14.23;;;;;;;5.95;72.14;99264.53;5139744;28;20184;-71
2022/12/06 09:10:49;;;;;;;26.67;13.98;;;;;;;5.74;73.06;99240.53;5146034;28;20878;-71
2022/12/06 09:13:39;;;;;;;30.67;15.20;;;;;;;6.29;71.21;99270.03;5129205;28;20630;-70
2022/12/06 09:16:29;;;;;;;33.85;16.65;;;;;;;5.70;72.96;99267.19;5150596;28;20065;-70
2022/12/06 09:19:20;;;;;;;30.52;15.57;;;;;;;6.22;71.46;99274.06;5149394;28;20058;-70
2022/12/06 09:22:10;;;;;;;35.70;16.45;;;;;;;6.22;71.25;99256.47;5152699;28;20505;-70
2022/12/06 09:25:00;;;;;;;37.25;16.88;;;;;;;5.71;72.05;99253.91;5149370;28;20073;-70
2022/12/06 09:27:51;;;;;;;40.40;17.30;;;;;;;5.88;72.67;99273.78;5144902;28;20042;-71
2022/12/06 09:30:41;;;;;;;35.45;15.95;;;;;;;5.98;72.59;99274.84;5128601;28;20415;-71
2022/12/06 09:33:32;;;;;;;35.55;16.38;;;;;;;6.22;70.96;99263.53;5143074;28;20208;-71
2022/12/06 09:36:25;;;;;;;34.13;16.63;;;;;;;6.49;71.03;99272.09;5127718;28;20061;-71
2022/12/06 09:39:49;;;;;;;34.13;16.13;;;;;;;6.10;71.87;99271.34;5145703;28;20193;-71
2022/12/06 09:42:51;;;;;;;33.10;14.48;;;;;;;6.25;71.96;99269.41;5137615;28;20061;-71
2022/12/06 09:46:19;;;;;;;37.45;15.35;;;;;;;6.55;70.67;99266.34;5124185;28;20184;-71
2022/12/06 09:49:26;;;;;;;31.33;15.75;;;;;;;6.33;70.98;99253.91;5142003;28;20520;-71
2022/12/06 09:52:34;;;;;;;34.58;16.77;;;;;;;6.21;71.23;99252.16;5143717;28;20398;-71
2022/12/06 09:55:43;;;;;;;30.92;15.30;;;;;;;6.30;71.21;99269.09;5142274;28;20065;-71
2022/12/06 09:59:01;;;;;;;33.78;14.35;;;;;;;6.44;71.24;99268.09;5143076;28;20087;-71
2022/12/06 10:02:04;;;;;;;30.15;14.57;;;;;;;6.38;71.51;99258.00;5124240;28;20125;-71
2022/12/06 10:05:18;;;;;;;30.17;14.48;;;;;;;6.55;71.58;99261.09;5127084;28;20565;-71
2022/12/06 10:08:20;;;;;;;32.93;14.67;;;;;;;6.35;70.51;99248.53;5124123;28;20426;-71
2022/12/06 10:11:54;;;;;;;28.50;14.80;;;;;;;6.41;71.56;99268.31;5129295;28;20289;-74
2022/12/06 10:15:02;;;;;;;32.50;14.60;;;;;;;6.38;71.34;99269.38;5128529;28;20592;-71
2022/12/06 10:18:16;;;;;;;31.35;15.02;;;;;;;6.44;71.34;99250.50;5125343;28;20197;-71
2022/12/06 10:21:34;;;;;;;39.05;16.73;;;;;;;6.25;72.05;99248.34;5145327;28;20452;-71
2022/12/06 10:24:43;;;;;;;31.25;13.68;;;;;;;6.10;73.05;99262.63;5130296;28;20058;-71
2022/12/06 10:27:49;;;;;;;27.45;12.88;;;;;;;6.42;71.21;99260.28;5144140;28;20066;-71
2022/12/06 10:30:49;;;;;;;27.55;12.15;;;;;;;6.09;72.48;99260.91;5127400;28;20133;-71
2022/12/06 10:34:08;;;;;;;18.45;10.65;;;;;;;6.01;72.51;99261.47;5140220;28;20061;-71
2022/12/06 10:37:36;;;;;;;17.60;9.80;;;;;;;5.92;72.00;99259.44;5124341;28;20069;-71
2022/12/06 10:40:51;;;;;;;15.25;8.35;;;;;;;5.22;75.31;99257.25;5134208;28;20247;-71
2022/12/06 10:44:03;;;;;;;15.45;6.88;;;;;;;5.49;75.52;99251.06;5130182;28;20100;-71
2022/12/06 10:47:05;;;;;;;14.88;7.78;;;;;;;5.91;74.36;99249.03;5143186;28;20047;-71
2022/12/06 10:50:01;;;;;;;12.07;6.47;;;;;;;5.52;73.89;99249.06;5137144;28;20062;-71
2022/12/06 10:52:58;;;;;;;13.32;7.00;;;;;;;5.89;74.14;99239.47;5132828;28;20069;-71
2022/12/06 10:56:08;;;;;;;12.07;7.07;;;;;;;6.26;72.68;99242.16;5135940;28;20054;-71
2022/12/06 10:59:09;;;;;;;11.73;6.60;;;;;;;5.94;74.15;99243.59;5124887;28;20054;-71
2022/12/06 11:02:14;;;;;;;12.15;7.18;;;;;;;5.93;74.58;99245.41;5126944;28;20066;-71
2022/12/06 11:05:27;;;;;;;11.23;6.18;;;;;;;6.05;71.74;99236.59;5139252;28;20077;-71
2022/12/06 11:08:41;;;;;;;15.55;7.22;;;;;;;6.15;71.68;99246.50;5130939;28;20537;-71
2022/12/06 11:11:34;;;;;;;12.75;7.40;;;;;;;6.05;72.25;99241.88;5153657;28;20081;-72
2022/12/06 11:14:37;;;;;;;13.38;7.30;;;;;;;6.14;71.28;99219.31;5151572;28;21062;-72
2022/12/06 11:17:31;;;;;;;13.35;7.75;;;;;;;6.30;71.88;99248.03;5137863;28;20076;-72
2022/12/06 11:20:28;;;;;;;14.25;7.90;;;;;;;6.13;72.14;99248.41;5143967;28;20046;-72
2022/12/06 11:23:45;;;;;;;13.18;7.45;;;;;;;6.03;71.15;99238.53;5158286;28;20082;-73
2022/12/06 11:26:51;;;;;;;12.52;7.25;;;;;;;5.98;71.98;99221.38;5129343;28;20137;-71
2022/12/06 11:29:43;;;;;;;11.35;7.15;;;;;;;6.30;70.77;99246.22;5140000;28;20052;-71
2022/12/06 11:32:33;;;;;;;13.88;8.25;;;;;;;6.18;71.05;99244.47;5149708;28;20114;-72
2022/12/06 11:35:26;;;;;;;10.60;7.13;;;;;;;6.38;71.05;99239.56;5150111;28;20546;-71
2022/12/06 11:38:17;;;;;;;12.95;7.45;;;;;;;6.47;69.64;99233.63;5144153;28;20053;-71
2022/12/06 11:41:12;;;;;;;12.35;7.13;;;;;;;6.38;70.14;99235.13;5147946;28;20128;-72
2022/12/06 11:44:02;;;;;;;11.43;6.32;;;;;;;6.26;70.57;99236.03;5151515;28;20051;-71
2022/12/06 11:46:55;;;;;;;9.88;6.18;;;;;;;5.89;70.40;99241.25;5155934;28;20069;-71
2022/12/06 11:49:49;;;;;;;9.48;6.45;;;;;;;6.24;70.50;99235.31;5165303;28;20677;-71
2022/12/06 11:53:25;;;;;;;11.82;5.68;;;;;;;6.06;70.12;99243.56;5170887;28;20139;-71
2022/12/06 11:56:23;;;;;;;10.48;6.00;;;;;;;6.16;70.00;99237.63;5152305;28;20057;-71
2022/12/06 11:59:21;;;;;;;12.15;5.93;;;;;;;6.10;68.62;99237.13;5157247;28;20042;-71
2022/12/06 12:02:30;;;;;;;8.27;5.57;;;;;;;5.62;70.31;99236.13;5157366;28;20224;-71
2022/12/06 12:05:29;;;;;;;8.88;5.25;;;;;;;5.85;69.37;99237.97;5172487;28;20057;-71
2022/12/06 12:08:24;;;;;;;9.63;5.50;;;;;;;5.87;69.71;99238.72;5149430;28;20050;-73
2022/12/06 12:11:25;;;;;;;10.57;5.53;;;;;;;6.18;69.32;99227.84;5153749;28;20050;-73
2022/12/06 12:14:22;;;;;;;9.60;6.05;;;;;;;6.17;68.60;99213.00;5154050;28;20049;-72
2022/12/06 12:17:19;;;;;;;11.65;6.30;;;;;;;6.20;68.29;99220.69;5169959;28;20060;-72
2022/12/06 12:20:20;;;;;;;8.95;5.85;;;;;;;5.96;69.45;99218.84;5148742;28;20070;-72
2022/12/06 12:23:37;;;;;;;9.98;5.63;;;;;;;6.40;68.64;99233.25;5144201;28;20137;-72
2022/12/06 12:26:39;;;;;;;12.13;6.18;;;;;;;5.87;69.13;99220.31;5152824;28;20520;-73
2022/12/06 12:29:29;;;;;;;10.52;5.93;;;;;;;6.10;69.16;99210.81;5155178;28;20548;-71
2022/12/06 12:32:19;;;;;;;11.05;5.40;;;;;;;5.86;69.45;99204.63;5153890;28;20065;-72
2022/12/06 12:35:19;;;;;;;9.60;5.47;;;;;;;5.82;68.56;99214.50;5164535;28;20061;-73
2022/12/06 12:38:08;;;;;;;12.07;6.60;;;;;;;5.86;69.51;99226.53;5146674;28;20605;-72
2022/12/06 12:41:02;;;;;;;12.35;6.55;;;;;;;5.65;69.32;99197.28;5135450;28;20127;-75
2022/12/06 12:44:00;;;;;;;12.68;6.65;;;;;;;5.87;69.39;99220.31;5148095;28;20065;-71
2022/12/06 12:47:18;;;;;;;11.38;6.25;;;;;;;5.34;69.82;99221.41;5128654;28;20058;-72
2022/12/06 12:50:12;;;;;;;10.77;6.53;;;;;;;5.92;69.19;99229.66;5148691;28;20061;-69
2022/12/06 12:53:03;;;;;;;10.60;6.60;;;;;;;5.54;69.77;99220.03;5122320;28;20058;-70
2022/12/06 12:56:13;;;;;;;12.95;6.80;;;;;;;5.57;70.92;99215.41;5132210;28;20424;-71
2022/12/06 12:59:12;;;;;;;10.57;6.60;;;;;;;5.91;69.27;99207.78;5132328;28;20180;-71
2022/12/06 13:02:21;;;;;;;16.13;6.65;;;;;;;5.59;69.31;99223.19;5146681;28;20061;-72
2022/12/06 13:05:18;;;;;;;13.68;6.10;;;;;;;5.59;70.39;99218.75;5143854;28;20073;-71
2022/12/06 13:08:33;;;;;;;11.30;6.60;;;;;;;5.27;69.72;99217.53;5138432;28;20055;-70
2022/12/06 13:11:24;;;;;;;9.85;6.00;;;;;;;4.97;70.73;99207.28;5138158;28;20357;-71
2022/12/06 13:14:21;;;;;;;10.63;6.20;;;;;;;5.76;69.09;99214.09;5137423;28;20192;-71
2022/12/06 13:17:12;;;;;;;11.48;6.57;;;;;;;5.62;69.79;99213.28;5122662;28;20192;-72
2022/12/06 13:20:18;;;;;;;11.85;6.78;;;;;;;5.57;70.06;99206.69;5125206;28;20060;-72
2022/12/06 13:23:14;;;;;;;13.60;7.00;;;;;;;5.67;69.69;99199.84;5136974;28;20057;-72
2022/12/06 13:26:14;;;;;;;11.50;6.40;;;;;;;5.09;70.43;99203.84;5140496;28;20065;-72
2022/12/06 13:29:27;;;;;;;14.15;6.80;;;;;;;5.57;70.73;99199.63;5136041;28;20054;-72
2022/12/06 13:32:21;;;;;;;11.63;6.78;;;;;;;5.76;68.76;99188.66;5142035;28;20251;-72
2022/12/06 13:35:22;;;;;;;;;;;;;;;6.06;68.67;99214.63;5124517;28;20065;-70
2022/12/06 13:38:16;;;;;;;12.48;7.15;;;;;;;5.57;70.67;99204.06;5107054;28;19932;-72
2022/12/06 13:44:46;;;;;;;9.93;6.10;;;;;;;5.48;69.64;99218.69;5141674;28;20685;-73
2022/12/06 13:47:37;;;;;;;13.25;7.22;;;;;;;5.60;70.32;99195.94;5140117;28;20137;-73
2022/12/06 13:50:31;;;;;;;13.35;6.63;;;;;;;5.81;69.12;99212.84;5125834;28;20058;-73
2022/12/06 13:53:24;;;;;;;13.32;6.80;;;;;;;5.66;70.91;99206.03;5142196;28;20062;-73
2022/12/06 13:56:29;;;;;;;11.50;6.53;;;;;;;6.17;68.72;99215.63;5151042;28;20535;-71
2022/12/06 13:59:19;;;;;;;10.18;6.28;;;;;;;6.10;67.60;99220.50;5149269;28;20317;-71
2022/12/06 14:02:43;;;;;;;13.93;6.25;;;;;;;5.97;68.87;99217.06;5154226;28;20061;-71
2022/12/06 14:05:59;;;;;;;13.93;6.50;;;;;;;5.40;70.11;99221.00;5123206;28;20065;-73
2022/12/06 14:08:58;;;;;;;14.35;7.03;;;;;;;5.91;68.51;99213.03;5143661;28;20103;-73
2022/12/06 14:11:49;;;;;;;14.85;7.57;;;;;;;6.10;68.38;99218.72;5147258;28;20061;-72